Time;durP1;ratioP1;P1;durP2;ratioP2;P2;SDS_P1;SDS_P2;PMS_P1;PMS_P2;Temp;Humidity;BMP_temperature;BMP_pressure;BME280_temperature;BME280_humidity;BME280_pressure;Samples;Min_cycle;Max_cycle;Signal;HPM_P1;HPM_P2
2022/07/24 00:00:53;;;;;;;9.85;5.65;;;;;;;17.98;100.00;99190.55;1797711;80;20993;-78
2022/07/24 00:03:20;;;;;;;11.08;5.70;;;;;;;17.97;100.00;99188.90;1797383;80;21044;-78
2022/07/24 00:05:47;;;;;;;11.63;6.00;;;;;;;17.96;100.00;99183.13;1778075;80;21008;-78
2022/07/24 00:08:14;;;;;;;15.72;6.70;;;;;;;17.94;100.00;99174.33;1797802;80;21044;-77
2022/07/24 00:10:42;;;;;;;12.73;6.53;;;;;;;17.90;100.00;99166.32;1796237;80;21033;-78
2022/07/24 00:13:10;;;;;;;15.55;7.87;;;;;;;17.86;100.00;99161.56;1792544;80;20986;-78
2022/07/24 00:15:37;;;;;;;14.03;7.15;;;;;;;17.82;100.00;99162.00;1792974;80;21061;-78
2022/07/24 00:18:05;;;;;;;14.98;7.55;;;;;;;17.79;100.00;99154.81;1792218;80;21017;-78
2022/07/24 00:20:32;;;;;;;13.48;6.62;;;;;;;17.76;100.00;99152.55;1772491;80;21001;-78
2022/07/24 00:23:01;;;;;;;12.33;6.53;;;;;;;17.73;100.00;99147.04;1772878;80;20997;-78
2022/07/24 00:25:29;;;;;;;12.73;6.72;;;;;;;17.71;100.00;99137.43;1792542;80;21640;-78
2022/07/24 00:27:56;;;;;;;10.95;6.08;;;;;;;17.68;100.00;99134.63;1793016;80;21002;-77
2022/07/24 00:30:23;;;;;;;8.33;5.58;;;;;;;17.64;100.00;99127.44;1795017;80;21032;-77
2022/07/24 00:32:50;;;;;;;8.93;5.05;;;;;;;17.61;100.00;99121.62;1773347;80;21049;-78
2022/07/24 00:35:17;;;;;;;6.12;4.60;;;;;;;17.57;100.00;99119.90;1793048;80;20998;-78
2022/07/24 00:37:46;;;;;;;6.78;4.72;;;;;;;17.58;100.00;99112.52;1792481;80;21029;-78
2022/07/24 00:40:15;;;;;;;7.60;4.22;;;;;;;17.56;100.00;99100.46;1792894;80;21001;-78
2022/07/24 00:42:43;;;;;;;8.18;4.50;;;;;;;17.55;100.00;99097.45;1792724;80;21507;-78
2022/07/24 00:45:11;;;;;;;5.83;4.28;;;;;;;17.54;100.00;99091.67;1792485;80;21044;-77
2022/07/24 00:47:37;;;;;;;5.30;4.00;;;;;;;17.54;100.00;99075.27;1792789;80;21510;-78
2022/07/24 00:50:06;;;;;;;6.87;4.20;;;;;;;17.53;100.00;99057.23;1792619;80;21045;-79
2022/07/24 00:52:33;;;;;;;5.90;4.47;;;;;;;17.53;100.00;99046.81;1792577;80;21206;-79
2022/07/24 00:55:00;;;;;;;6.17;4.45;;;;;;;17.52;100.00;99045.17;1792957;80;21583;-79
2022/07/24 00:57:28;;;;;;;5.53;4.22;;;;;;;17.49;100.00;99034.17;1792720;80;21029;-79
2022/07/24 00:59:55;;;;;;;10.88;5.83;;;;;;;17.48;100.00;99031.70;1792489;80;20995;-79
2022/07/24 01:02:23;;;;;;;15.25;8.20;;;;;;;17.45;100.00;99021.52;1792960;80;21066;-78
2022/07/24 01:04:51;;;;;;;17.25;8.93;;;;;;;17.43;100.00;99026.41;1792380;80;21035;-79
2022/07/24 01:07:17;;;;;;;15.13;8.33;;;;;;;17.43;100.00;99021.48;1772659;80;21025;-78
2022/07/24 01:09:45;;;;;;;16.52;8.05;;;;;;;17.43;100.00;99016.02;1772434;80;21044;-78
2022/07/24 01:12:11;;;;;;;15.00;7.90;;;;;;;17.42;100.00;99006.14;1772688;80;21013;-78
2022/07/24 01:14:39;;;;;;;15.78;7.78;;;;;;;17.40;100.00;99005.02;1772302;80;21041;-78
2022/07/24 01:17:06;;;;;;;17.60;7.20;;;;;;;17.40;100.00;99002.83;1801024;80;21036;-79
2022/07/24 01:19:36;;;;;;;15.05;7.65;;;;;;;17.38;100.00;98983.94;1800705;80;20993;-77
2022/07/24 01:22:03;;;;;;;13.75;7.37;;;;;;;17.37;100.00;98978.71;1800981;80;21016;-79
2022/07/24 01:24:30;;;;;;;13.15;6.85;;;;;;;17.39;100.00;98971.95;1772028;80;21097;-79
2022/07/24 01:26:57;;;;;;;14.15;6.62;;;;;;;17.39;100.00;98964.30;1800936;79;20981;-78
2022/07/24 01:29:24;;;;;;;11.85;6.78;;;;;;;17.38;100.00;98955.80;1800894;79;21021;-80
2022/07/24 01:31:51;;;;;;;15.72;7.40;;;;;;;17.39;100.00;98950.64;1800862;80;20989;-79
2022/07/24 01:34:18;;;;;;;14.47;7.50;;;;;;;17.39;100.00;98937.80;1800955;80;21013;-79
2022/07/24 01:36:45;;;;;;;15.85;7.90;;;;;;;17.40;100.00;98942.72;1801321;80;21032;-79
2022/07/24 01:39:12;;;;;;;17.35;8.08;;;;;;;17.39;100.00;98939.16;1800704;80;21025;-79
2022/07/24 01:41:40;;;;;;;24.67;8.68;;;;;;;17.37;100.00;98939.95;1800907;80;21044;-79
2022/07/24 01:44:07;;;;;;;18.92;9.00;;;;;;;17.37;100.00;98944.56;1800823;80;21486;-79
2022/07/24 01:46:33;;;;;;;26.52;9.80;;;;;;;17.37;100.00;98941.83;1800685;80;21044;-78
2022/07/24 01:49:00;;;;;;;42.35;11.12;;;;;;;17.37;100.00;98945.92;1801105;80;21008;-78
2022/07/24 01:51:27;;;;;;;25.60;9.45;;;;;;;17.38;100.00;98944.86;1801113;80;21494;-78
2022/07/24 01:53:54;;;;;;;20.95;8.73;;;;;;;17.38;100.00;98944.32;1772340;80;21076;-78
2022/07/24 01:56:21;;;;;;;30.45;9.75;;;;;;;17.40;100.00;98948.18;1801007;80;20988;-77
2022/07/24 01:58:49;;;;;;;21.75;7.37;;;;;;;17.42;100.00;98945.52;1800652;79;20994;-78
2022/07/24 02:01:16;;;;;;;17.70;7.08;;;;;;;17.45;100.00;98945.55;1801135;80;21005;-78
2022/07/24 02:03:42;;;;;;;17.77;6.58;;;;;;;17.49;100.00;98950.81;1801362;80;21005;-78
2022/07/24 02:06:09;;;;;;;21.97;6.40;;;;;;;17.53;100.00;98958.84;1801066;80;21025;-78
2022/07/24 02:08:37;;;;;;;18.80;6.45;;;;;;;17.55;100.00;98956.70;1800839;80;21048;-78
2022/07/24 02:11:05;;;;;;;18.85;5.85;;;;;;;17.57;100.00;98958.64;1800089;80;21127;-78
2022/07/24 02:13:32;;;;;;;11.68;5.33;;;;;;;17.61;100.00;98965.81;1777480;80;21109;-78
2022/07/24 02:16:00;;;;;;;13.98;5.33;;;;;;;17.64;100.00;98969.44;1797714;80;21033;-78
2022/07/24 02:18:27;;;;;;;12.98;5.30;;;;;;;17.66;100.00;98971.39;1797938;80;20997;-77
2022/07/24 02:20:54;;;;;;;13.88;5.28;;;;;;;17.66;100.00;98968.66;1797750;80;21021;-78
2022/07/24 02:23:21;;;;;;;13.25;5.75;;;;;;;17.67;100.00;98973.58;1777559;80;21013;-77
2022/07/24 02:25:49;;;;;;;16.23;6.37;;;;;;;17.67;100.00;98977.16;1797670;80;21470;-77
2022/07/24 02:28:16;;;;;;;18.42;7.20;;;;;;;17.65;100.00;98978.77;1797651;80;21022;-78
2022/07/24 02:30:44;;;;;;;19.98;7.42;;;;;;;17.64;100.00;98977.09;1797479;80;21073;-78
2022/07/24 02:33:11;;;;;;;17.15;7.15;;;;;;;17.63;100.00;98974.05;1797747;80;21036;-80
2022/07/24 02:35:39;;;;;;;17.92;7.20;;;;;;;17.61;100.00;98974.84;1797703;80;21033;-78
2022/07/24 02:38:08;;;;;;;19.23;7.10;;;;;;;17.58;100.00;98979.45;1797529;80;21063;-78
2022/07/24 02:40:36;;;;;;;18.77;6.72;;;;;;;17.56;100.00;98982.93;1777974;80;21045;-77
2022/07/24 02:43:03;;;;;;;17.42;6.60;;;;;;;17.55;100.00;98982.66;1797672;80;21009;-78
2022/07/24 02:45:30;;;;;;;13.28;6.20;;;;;;;17.54;100.00;98972.78;1797814;80;21001;-77
2022/07/24 02:47:57;;;;;;;11.88;5.80;;;;;;;17.54;100.00;98976.06;1797941;80;21017;-78
2022/07/24 02:50:28;;;;;;;10.65;5.08;;;;;;;17.56;100.00;98969.27;1797506;79;21036;-78
2022/07/24 02:52:55;;;;;;;12.47;5.40;;;;;;;17.57;100.00;98966.02;1794817;80;21044;-77
2022/07/24 02:55:22;;;;;;;10.58;5.47;;;;;;;17.58;100.00;98964.41;1797799;80;21025;-78
2022/07/24 02:57:48;;;;;;;11.65;5.87;;;;;;;17.58;100.00;98964.41;1797837;80;20989;-78
2022/07/24 03:00:17;;;;;;;9.15;5.72;;;;;;;17.58;100.00;98963.05;1781271;80;21009;-78
2022/07/24 03:02:43;;;;;;;10.05;5.00;;;;;;;17.59;100.00;98959.22;1772360;81;21048;-78
2022/07/24 03:05:10;;;;;;;7.80;4.83;;;;;;;17.60;100.00;98955.95;1772410;81;20997;-77
2022/07/24 03:07:37;;;;;;;10.25;4.70;;;;;;;17.62;100.00;98960.11;1772054;81;21061;-78
2022/07/24 03:10:06;;;;;;;6.22;4.67;;;;;;;17.63;100.00;98957.66;1772138;81;21024;-78
2022/07/24 03:12:33;;;;;;;7.87;4.55;;;;;;;17.67;100.00;98957.17;1753273;81;21025;-78
2022/07/24 03:15:00;;;;;;;5.53;4.53;;;;;;;17.69;100.00;98959.97;1743232;82;21459;-78
2022/07/24 03:17:27;;;;;;;7.47;5.10;;;;;;;17.73;100.00;98952.94;1737896;82;21029;-79
2022/07/24 03:19:55;;;;;;;7.40;4.90;;;;;;;17.77;100.00;98960.93;1743325;81;21009;-78
2022/07/24 03:22:22;;;;;;;7.45;4.50;;;;;;;17.82;100.00;98965.67;1743113;82;21451;-79
2022/07/24 03:24:49;;;;;;;6.92;4.42;;;;;;;17.91;100.00;98966.14;1743438;82;21014;-78
2022/07/24 03:27:16;;;;;;;7.03;4.25;;;;;;;17.97;100.00;98968.73;1743403;81;20989;-79
2022/07/24 03:29:42;;;;;;;11.75;4.42;;;;;;;18.02;100.00;98959.77;1743151;82;20993;-79
2022/07/24 03:32:10;;;;;;;7.35;4.67;;;;;;;18.08;100.00;98963.42;1743572;81;21495;-78
2022/07/24 03:34:36;;;;;;;8.23;5.05;;;;;;;18.14;100.00;98969.30;1743267;82;21009;-79
2022/07/24 03:37:04;;;;;;;8.03;5.30;;;;;;;18.20;100.00;98975.13;1743449;82;21100;-78
2022/07/24 03:39:31;;;;;;;12.58;6.10;;;;;;;18.25;100.00;98973.03;1743283;81;21069;-79
2022/07/24 03:41:58;;;;;;;13.00;6.95;;;;;;;18.28;100.00;98964.34;1743110;82;21076;-79
2022/07/24 03:44:25;;;;;;;16.02;7.28;;;;;;;18.31;100.00;98967.41;1743514;82;21025;-79
2022/07/24 03:46:52;;;;;;;17.12;8.40;;;;;;;18.35;100.00;98969.11;1743587;82;21464;-79
2022/07/24 03:49:19;;;;;;;20.30;9.20;;;;;;;18.38;100.00;98976.28;1744380;82;21029;-79
2022/07/24 03:51:46;;;;;;;21.75;10.58;;;;;;;18.46;100.00;98978.31;1746946;82;21021;-78
2022/07/24 03:54:12;;;;;;;22.80;11.43;;;;;;;18.53;100.00;98977.61;1744828;82;20993;-77
2022/07/24 03:56:40;;;;;;;25.72;11.90;;;;;;;18.58;100.00;98974.95;1743413;82;21025;-79
2022/07/24 03:59:06;;;;;;;21.77;11.25;;;;;;;18.64;100.00;98978.59;1743116;82;20976;-78
2022/07/24 04:01:33;;;;;;;17.65;9.03;;;;;;;18.68;100.00;98976.48;1743384;82;21011;-78
2022/07/24 04:04:04;;;;;;;16.50;7.90;;;;;;;18.72;100.00;98975.45;1743341;82;20987;-78
2022/07/24 04:06:28;;;;;;;15.72;7.40;;;;;;;18.75;100.00;98985.36;1741962;82;21019;-78
2022/07/24 04:08:55;;;;;;;12.55;6.42;;;;;;;18.82;100.00;98985.19;1743072;82;21071;-79
2022/07/24 04:11:22;;;;;;;13.98;5.78;;;;;;;18.89;100.00;98987.25;1743823;80;21507;-77
2022/07/24 04:13:49;;;;;;;9.45;5.10;;;;;;;18.97;100.00;98999.12;1755540;82;21038;-77
2022/07/24 04:16:16;;;;;;;8.45;4.30;;;;;;;19.04;100.00;99002.24;1756654;82;21053;-78
2022/07/24 04:18:43;;;;;;;4.90;3.50;;;;;;;19.13;100.00;99012.50;1756075;82;21591;-79
2022/07/24 04:21:10;;;;;;;9.63;4.00;;;;;;;19.23;100.00;99021.42;1756338;82;20995;-78
2022/07/24 04:23:37;;;;;;;7.37;4.03;;;;;;;19.33;100.00;99020.17;1756532;82;21073;-78
2022/07/24 04:26:05;;;;;;;4.92;3.50;;;;;;;19.42;100.00;99030.16;1756584;80;21064;-77
2022/07/24 04:28:31;;;;;;;6.28;3.77;;;;;;;19.52;100.00;99040.44;1726451;81;21548;-79
2022/07/24 04:30:58;;;;;;;5.08;3.60;;;;;;;19.63;100.00;99040.03;1756376;82;20971;-79
2022/07/24 04:33:25;;;;;;;4.78;3.35;;;;;;;19.77;100.00;99030.91;1756649;82;21102;-77
2022/07/24 04:35:52;;;;;;;3.20;3.00;;;;;;;19.95;100.00;99022.33;1756406;81;21007;-78
2022/07/24 04:38:19;;;;;;;4.42;3.30;;;;;;;20.15;100.00;99021.73;1756810;82;21022;-78
2022/07/24 04:40:46;;;;;;;3.50;3.20;;;;;;;20.35;100.00;99025.22;1756462;82;21070;-78
2022/07/24 04:43:13;;;;;;;7.42;3.72;;;;;;;20.58;100.00;99048.77;1756632;82;21062;-77
2022/07/24 04:45:39;;;;;;;3.30;2.98;;;;;;;20.76;100.00;99074.23;1754250;82;21082;-78
2022/07/24 04:48:07;;;;;;;5.15;3.15;;;;;;;20.96;100.00;99092.79;1754864;82;21010;-77
2022/07/24 04:50:34;;;;;;;4.45;3.10;;;;;;;21.15;100.00;99120.15;1756672;81;21050;-79
2022/07/24 04:53:00;;;;;;;4.03;2.95;;;;;;;21.31;100.00;99139.52;1756197;81;21547;-79
2022/07/24 04:55:28;;;;;;;3.77;3.37;;;;;;;21.46;100.00;99160.81;1756733;82;20999;-77
2022/07/24 04:57:55;;;;;;;4.55;3.15;;;;;;;21.64;100.00;99179.66;1755954;82;21054;-77
2022/07/24 05:00:22;;;;;;;3.40;3.10;;;;;;;21.87;100.00;99188.06;1738545;81;21051;-78
2022/07/24 05:02:49;;;;;;;4.53;2.98;;;;;;;22.09;100.00;99199.45;1773610;81;21072;-77
2022/07/24 05:05:16;;;;;;;3.33;3.02;;;;;;;22.30;100.00;99206.73;1773718;81;21005;-77
2022/07/24 05:07:43;;;;;;;4.45;3.12;;;;;;;22.52;100.00;99218.97;1773718;81;21012;-78
2022/07/24 05:10:11;;;;;;;3.65;3.35;;;;;;;22.74;100.00;99230.33;1721614;82;21058;-79
2022/07/24 05:12:39;;;;;;;6.80;3.20;;;;;;;22.97;100.00;99240.59;1699387;84;21030;-78
2022/07/24 05:15:07;;;;;;;5.60;3.60;;;;;;;23.20;100.00;99258.02;1716667;82;21070;-78
2022/07/24 05:17:35;;;;;;;7.92;3.15;;;;;;;23.36;100.00;99272.66;1699560;84;21541;-85
2022/07/24 05:20:06;;;;;;;4.97;3.33;;;;;;;23.53;100.00;99277.89;1696818;84;21059;-85
2022/07/24 05:22:34;;;;;;;4.60;3.17;;;;;;;23.70;100.00;99283.97;1731199;83;21033;-85
2022/07/24 05:25:01;;;;;;;4.45;3.30;;;;;;;23.83;100.00;99297.83;1720962;83;21035;-86
2022/07/24 05:27:29;;;;;;;6.17;3.27;;;;;;;23.98;100.00;99308.58;1721133;83;21038;-86
2022/07/24 05:29:56;;;;;;;3.67;3.20;;;;;;;24.17;100.00;99331.75;1721679;83;21042;-85
2022/07/24 05:32:23;;;;;;;4.00;2.90;;;;;;;24.35;100.00;99346.09;1721659;82;21010;-85
2022/07/24 05:34:50;;;;;;;5.78;2.90;;;;;;;24.54;100.00;99350.48;1720409;83;21036;-84
2022/07/24 05:37:17;;;;;;;6.37;3.77;;;;;;;24.67;100.00;99378.11;1720072;83;21003;-86
2022/07/24 05:39:44;;;;;;;4.60;2.90;;;;;;;24.75;100.00;99407.92;1721007;83;21050;-85
2022/07/24 05:42:11;;;;;;;4.42;3.00;;;;;;;24.76;100.00;99439.44;1720700;83;21031;-87
2022/07/24 05:44:42;;;;;;;3.33;2.80;;;;;;;24.81;100.00;99432.52;1721450;83;21082;-86
2022/07/24 05:47:10;;;;;;;3.90;2.87;;;;;;;24.95;100.00;99423.64;1720562;83;21038;-86
2022/07/24 05:49:36;;;;;;;3.83;2.80;;;;;;;25.16;100.00;99440.44;1720830;83;21094;-85
2022/07/24 05:52:05;;;;;;;4.22;3.10;;;;;;;25.36;100.00;99469.16;1721266;83;21039;-87
2022/07/24 05:54:32;;;;;;;5.53;3.25;;;;;;;25.58;100.00;99474.31;1721245;83;21011;-86
2022/07/24 05:56:59;;;;;;;3.15;2.75;;;;;;;25.83;100.00;99491.33;1720962;83;20999;-86
2022/07/24 05:59:27;;;;;;;4.20;3.05;;;;;;;25.99;100.00;99528.67;1721333;83;21094;-84
2022/07/24 06:01:54;;;;;;;7.75;3.30;;;;;;;26.03;100.00;99551.91;1721225;83;21043;-84
2022/07/24 06:04:21;;;;;;;3.62;3.02;;;;;;;26.14;100.00;99556.30;1720480;83;21071;-83
2022/07/24 06:06:49;;;;;;;3.45;3.15;;;;;;;26.18;100.00;99578.72;1720958;82;21517;-84
2022/07/24 06:09:17;;;;;;;4.17;3.20;;;;;;;26.34;100.00;99547.83;1721170;83;21054;-86
2022/07/24 06:11:45;;;;;;;4.58;3.20;;;;;;;26.59;100.00;99556.27;1720120;83;21054;-83
2022/07/24 06:14:12;;;;;;;3.35;3.10;;;;;;;26.69;100.00;99590.88;1720629;83;21528;-82
2022/07/24 06:16:41;;;;;;;5.03;3.42;;;;;;;26.73;100.00;99603.61;1721045;83;21537;-83
2022/07/24 06:19:08;;;;;;;5.62;3.50;;;;;;;26.84;100.00;99583.83;1720723;83;21055;-82
2022/07/24 06:21:37;;;;;;;5.45;3.58;;;;;;;27.07;100.00;99574.45;1720085;83;21034;-82
2022/07/24 06:24:04;;;;;;;6.03;3.65;;;;;;;27.21;100.00;99610.10;1720811;83;21030;-81
2022/07/24 06:26:31;;;;;;;8.40;3.47;;;;;;;27.22;100.00;99622.88;1720689;83;20992;-81
2022/07/24 06:28:59;;;;;;;6.12;3.95;;;;;;;27.18;100.00;99620.42;1720351;83;21042;-81
2022/07/24 06:31:27;;;;;;;7.12;3.60;;;;;;;27.20;100.00;99634.02;1720238;83;21019;-80
2022/07/24 06:33:53;;;;;;;5.22;3.70;;;;;;;27.12;100.00;99636.84;1720899;83;21015;-82
2022/07/24 06:36:20;;;;;;;7.70;3.72;;;;;;;27.06;100.00;99608.31;1720793;83;21009;-81
2022/07/24 06:38:47;;;;;;;8.45;4.12;;;;;;;27.21;100.00;99622.59;1720499;83;21070;-80
2022/07/24 06:41:14;;;;;;;6.15;4.10;;;;;;;27.30;100.00;99620.05;1720639;83;21015;-80
2022/07/24 06:43:41;;;;;;;4.90;3.95;;;;;;;27.54;100.00;99608.98;1720044;83;21035;-82
2022/07/24 06:46:08;;;;;;;8.68;4.05;;;;;;;27.77;100.00;99632.33;1689966;83;21063;-81
2022/07/24 06:48:35;;;;;;;7.78;4.20;;;;;;;27.75;100.00;99652.63;1720542;83;21292;-81
2022/07/24 06:51:02;;;;;;;4.80;3.80;;;;;;;27.89;100.00;99623.59;1720593;83;20990;-81
2022/07/24 06:53:28;;;;;;;7.28;4.47;;;;;;;28.20;100.00;99624.60;1720463;83;21002;-80
2022/07/24 06:55:55;;;;;;;7.45;4.78;;;;;;;28.55;100.00;99644.16;1720278;83;21021;-80
2022/07/24 06:58:22;;;;;;;8.05;4.47;;;;;;;28.61;100.00;99676.88;1720454;83;20999;-78
2022/07/24 07:00:50;;;;;;;6.75;4.08;;;;;;;28.59;100.00;99724.45;1720138;83;21054;-80
2022/07/24 07:03:18;;;;;;;8.95;4.30;;;;;;;28.66;100.00;99707.41;1721202;83;20999;-80
2022/07/24 07:05:46;;;;;;;7.62;4.25;;;;;;;28.92;100.00;99719.00;1693685;83;21058;-79
2022/07/24 07:08:13;;;;;;;5.00;4.00;;;;;;;29.22;100.00;99725.83;1721825;83;21067;-79
2022/07/24 07:10:39;;;;;;;8.08;3.72;;;;;;;29.34;100.00;99722.83;1720380;82;20995;-79
2022/07/24 07:13:08;;;;;;;6.62;3.72;;;;;;;29.59;100.00;99724.91;1715221;83;21513;-81
2022/07/24 07:15:35;;;;;;;5.22;4.10;;;;;;;29.87;100.00;99741.70;1709418;84;21543;-72
2022/07/24 07:18:04;;;;;;;4.10;3.47;;;;;;;29.89;100.00;99746.42;1709555;84;21057;-70
2022/07/24 07:20:31;;;;;;;4.12;3.58;;;;;;;30.08;100.00;99739.34;1709729;84;21043;-70
2022/07/24 07:22:57;;;;;;;10.82;3.85;;;;;;;30.33;100.00;99738.00;1709674;84;21039;-71
2022/07/24 07:25:24;;;;;;;6.37;3.80;;;;;;;30.51;100.00;99744.66;1709648;84;21091;-72
2022/07/24 07:27:50;;;;;;;6.40;3.80;;;;;;;30.58;100.00;99750.64;1709574;84;21047;-69
2022/07/24 07:30:17;;;;;;;6.15;4.12;;;;;;;30.64;100.00;99758.33;1709317;84;21047;-72
2022/07/24 07:32:44;;;;;;;7.50;3.58;;;;;;;30.68;100.00;99756.55;1709654;84;21032;-73
2022/07/24 07:35:12;;;;;;;7.30;3.75;;;;;;;30.68;100.00;99752.37;1709697;84;21482;-73
2022/07/24 07:37:40;;;;;;;4.47;3.83;;;;;;;30.73;100.00;99749.47;1709480;84;21004;-71
2022/07/24 07:40:10;;;;;;;4.05;3.65;;;;;;;30.76;100.00;99749.42;1709232;84;21631;-72
2022/07/24 07:42:36;;;;;;;4.60;3.62;;;;;;;30.88;100.00;99745.52;1709521;84;21087;-72
2022/07/24 07:45:04;;;;;;;6.08;3.40;;;;;;;30.98;100.00;99753.67;1709525;84;21039;-72
2022/07/24 07:47:31;;;;;;;3.62;3.33;;;;;;;31.25;100.00;99755.30;1709622;84;21046;-72
2022/07/24 07:49:57;;;;;;;3.70;3.27;;;;;;;31.58;100.00;99753.10;1709334;84;21063;-71
2022/07/24 07:52:25;;;;;;;5.20;3.40;;;;;;;31.84;100.00;99749.63;1709271;84;21550;-72
2022/07/24 07:54:52;;;;;;;5.55;3.45;;;;;;;32.13;100.00;99753.34;1709351;84;21547;-71
2022/07/24 07:57:19;;;;;;;4.65;3.55;;;;;;;32.40;100.00;99757.06;1709586;84;20983;-73
2022/07/24 07:59:45;;;;;;;4.35;3.77;;;;;;;32.63;100.00;99761.42;1708651;84;21544;-72
2022/07/24 08:02:12;;;;;;;5.83;3.55;;;;;;;32.72;100.00;99773.48;1708094;84;21035;-72
2022/07/24 08:04:39;;;;;;;4.28;3.50;;;;;;;32.51;100.00;99764.00;1707907;84;21022;-71
2022/07/24 08:07:06;;;;;;;3.65;3.35;;;;;;;32.57;100.00;99756.30;1708010;83;21113;-71
2022/07/24 08:09:33;;;;;;;6.40;3.55;;;;;;;32.75;100.00;99758.59;1707798;84;21074;-71
2022/07/24 08:12:01;;;;;;;5.65;3.25;;;;;;;32.70;100.00;99765.15;1708007;83;21066;-71
2022/07/24 08:14:28;;;;;;;5.33;3.47;;;;;;;32.63;100.00;99754.43;1707779;83;21038;-71
2022/07/24 08:16:55;;;;;;;4.35;3.45;;;;;;;32.79;100.00;99753.97;1708076;84;21030;-71
2022/07/24 08:19:23;;;;;;;3.60;3.30;;;;;;;32.87;100.00;99758.19;1707874;84;21043;-71
2022/07/24 08:21:51;;;;;;;3.98;3.40;;;;;;;32.98;100.00;99751.69;1708128;84;21070;-72
2022/07/24 08:24:20;;;;;;;3.85;3.45;;;;;;;33.07;100.00;99758.69;1707774;84;21034;-70
2022/07/24 08:26:48;;;;;;;4.03;3.17;;;;;;;32.81;100.00;99753.06;1708302;84;21019;-71
2022/07/24 08:29:15;;;;;;;4.87;3.40;;;;;;;32.80;100.00;99759.25;1708030;84;21021;-72
2022/07/24 08:31:42;;;;;;;3.55;3.25;;;;;;;32.54;100.00;99759.97;1708027;84;21096;-72
2022/07/24 08:34:09;;;;;;;3.62;3.30;;;;;;;32.34;100.00;99758.61;1708004;84;20995;-79
2022/07/24 08:36:36;;;;;;;4.50;3.35;;;;;;;32.40;100.00;99756.48;1708351;84;21109;-80
2022/07/24 08:39:03;;;;;;;3.87;3.52;;;;;;;32.58;100.00;99754.58;1707795;84;21532;-82
2022/07/24 08:41:35;;;;;;;3.83;3.20;;;;;;;32.85;100.00;99752.09;1708260;84;21058;-83
2022/07/24 08:44:03;;;;;;;6.17;3.63;;;;;;;33.15;100.00;99759.87;1708340;84;21027;-82
2022/07/24 08:46:30;;;;;;;3.70;3.40;;;;;;;33.27;100.00;99762.28;1708192;84;20990;-82
2022/07/24 08:48:57;;;;;;;6.78;3.37;;;;;;;33.40;100.00;99763.25;1707880;84;21093;-81
2022/07/24 08:51:33;;;;;;;3.90;3.27;;;;;;;33.65;100.00;99750.94;1708083;84;21037;-81
2022/07/24 08:54:02;;;;;;;13.05;7.58;;;;;;;33.95;100.00;99758.06;1706482;84;21034;-82
2022/07/24 08:56:29;;;;;;;5.58;4.00;;;;;;;34.17;100.00;99752.77;1708958;84;20991;-81
2022/07/24 08:58:57;;;;;;;4.25;3.60;;;;;;;34.21;97.07;99758.81;1708258;84;21081;-82
2022/07/24 09:01:24;;;;;;;6.67;3.70;;;;;;;34.28;100.00;99756.05;1708218;83;21062;-82
2022/07/24 09:03:51;;;;;;;4.67;3.90;;;;;;;34.40;100.00;99748.55;1708312;84;21023;-83
2022/07/24 09:06:18;;;;;;;5.80;4.00;;;;;;;34.56;100.00;99744.57;1708414;84;21043;-83
2022/07/24 09:09:01;;;;;;;4.08;3.67;;;;;;;34.52;100.00;99757.65;1708273;84;21085;-83
2022/07/24 09:11:29;;;;;;;7.12;4.37;;;;;;;34.47;99.23;99759.25;1695514;85;21069;-83
2022/07/24 09:16:48;;;;;;;5.63;3.43;;;;;;;34.33;99.68;99748.25;1692524;85;20998;-84
2022/07/24 09:19:16;;;;;;;6.17;4.00;;;;;;;34.50;98.35;99744.55;1692240;85;21496;-82
2022/07/24 09:21:44;;;;;;;6.45;4.15;;;;;;;34.62;90.53;99752.24;1692163;85;21059;-81
2022/07/24 09:24:21;;;;;;;4.90;3.83;;;;;;;34.54;93.76;99750.30;1692557;85;20986;-83
2022/07/24 09:26:53;;;;;;;8.48;4.45;;;;;;;34.62;96.17;99739.61;1692393;85;20998;-82
2022/07/24 09:29:21;;;;;;;6.20;4.15;;;;;;;34.71;92.40;99746.02;1692581;85;21062;-81
2022/07/24 09:31:57;;;;;;;4.83;3.62;;;;;;;34.82;100.00;99740.00;1692372;85;21033;-82
2022/07/24 09:34:25;;;;;;;4.83;3.95;;;;;;;35.00;98.08;99740.09;1692579;85;20994;-82
2022/07/24 09:37:02;;;;;;;5.10;3.90;;;;;;;34.91;96.64;99737.35;1692687;85;21086;-82
2022/07/24 09:39:34;;;;;;;5.67;3.95;;;;;;;34.59;92.60;99738.88;1664755;86;21097;-84
2022/07/24 09:42:04;;;;;;;5.35;3.70;;;;;;;34.22;93.36;99739.98;1665092;86;21061;-86
2022/07/24 09:44:31;;;;;;;5.30;3.77;;;;;;;33.95;94.03;99744.04;1664900;86;21024;-86
2022/07/24 09:47:09;;;;;;;5.50;3.90;;;;;;;33.59;97.00;99748.05;1664917;86;21060;-84
2022/07/24 09:49:38;;;;;;;6.08;3.70;;;;;;;33.46;90.38;99740.08;1610386;89;21215;-84
2022/07/24 09:52:18;;;;;;;4.47;3.50;;;;;;;33.48;91.52;99737.77;1610385;89;21079;-83
2022/07/24 09:54:48;;;;;;;6.47;4.20;;;;;;;33.51;91.63;99732.09;1610130;89;21058;-85
2022/07/24 09:57:28;;;;;;;9.68;4.00;;;;;;;33.69;92.91;99734.30;1610238;89;21035;-82
2022/07/24 09:59:59;;;;;;;52.80;47.13;;;;;;;33.82;95.58;99736.91;1610038;89;21106;-84
2022/07/24 10:02:29;;;;;;;14.80;9.85;;;;;;;33.69;95.79;99739.32;1610127;89;21576;-81
2022/07/24 10:04:57;;;;;;;6.22;5.28;;;;;;;33.28;89.54;99735.08;1610271;89;21102;-81
2022/07/24 10:07:25;;;;;;;10.25;7.05;;;;;;;33.03;96.22;99728.31;1608676;89;21071;-81
2022/07/24 10:09:54;;;;;;;5.55;3.98;;;;;;;33.02;97.96;99737.27;1599114;90;21120;-83
2022/07/24 10:12:26;;;;;;;4.72;3.70;;;;;;;33.00;92.83;99743.77;1599421;90;21016;-83
2022/07/24 10:14:56;;;;;;;7.30;3.83;;;;;;;33.03;93.25;99739.51;1599760;88;21060;-85
2022/07/24 10:17:43;;;;;;;6.85;5.05;;;;;;;33.28;95.28;99725.27;1602115;90;21080;-81
2022/07/24 10:20:12;;;;;;;9.78;6.87;;;;;;;33.64;99.58;99722.09;1576153;89;21077;-82
2022/07/24 10:23:02;;;;;;;6.58;4.08;;;;;;;33.98;95.19;99722.31;1575400;91;21147;-82
2022/07/24 10:25:32;;;;;;;4.65;3.45;;;;;;;33.89;89.70;99727.95;1571647;91;21523;-82
2022/07/24 10:27:59;;;;;;;6.85;3.50;;;;;;;33.54;89.27;99730.00;1583813;91;21077;-82
2022/07/24 10:30:26;;;;;;;7.37;3.65;;;;;;;33.14;87.64;99735.25;1583225;91;21156;-82
2022/07/24 10:32:53;;;;;;;8.23;3.75;;;;;;;33.08;94.78;99730.95;1563297;91;21061;-82
2022/07/24 10:35:24;;;;;;;47.88;42.27;;;;;;;33.32;93.89;99726.83;1583132;89;21129;-82
2022/07/24 10:38:06;;;;;;;23.32;18.65;;;;;;;33.44;90.70;99731.19;1557049;92;21087;-83
2022/07/24 10:40:48;;;;;;;7.97;6.40;;;;;;;33.25;91.84;99733.77;1572200;91;21063;-82
2022/07/24 10:43:18;;;;;;;5.20;4.30;;;;;;;32.95;94.08;99735.53;1582807;91;21106;-82
2022/07/24 10:45:57;;;;;;;4.22;3.77;;;;;;;32.90;97.25;99722.54;1564598;91;21138;-83
2022/07/24 10:48:26;;;;;;;4.03;3.72;;;;;;;33.11;98.78;99717.11;1495133;96;21146;-82
2022/07/24 10:51:10;;;;;;;5.72;3.70;;;;;;;33.37;99.55;99710.67;1494962;96;21106;-81
2022/07/24 10:53:42;;;;;;;4.17;3.77;;;;;;;33.74;98.72;99713.09;1495272;96;21090;-80
2022/07/24 10:56:36;;;;;;;4.47;3.98;;;;;;;34.17;92.29;99710.69;1497134;92;21094;-83
2022/07/24 10:59:09;;;;;;;5.12;3.70;;;;;;;34.52;88.66;99704.32;1552213;91;21988;-83
2022/07/24 11:01:47;;;;;;;6.37;4.08;;;;;;;34.84;87.82;99707.59;1547176;92;21082;-81
2022/07/24 11:04:25;;;;;;;5.30;3.90;;;;;;;34.99;81.74;99705.58;1547003;93;21564;-81
2022/07/24 11:06:56;;;;;;;21.57;19.27;;;;;;;35.19;84.96;99704.49;1546852;91;21111;-79
2022/07/24 11:09:25;;;;;;;11.60;8.75;;;;;;;35.47;79.88;99706.14;1546840;93;21074;-80
2022/07/24 11:11:58;;;;;;;77.15;69.80;;;;;;;35.67;79.69;99693.77;1547344;93;21104;-78
2022/07/24 11:14:41;;;;;;;13.88;11.45;;;;;;;35.87;79.68;99688.66;1556436;90;21627;-79
2022/07/24 11:17:42;;;;;;;5.83;5.20;;;;;;;36.04;73.39;99691.03;1544835;93;21099;-78
2022/07/24 11:20:15;;;;;;;8.55;4.05;;;;;;;36.18;72.33;99680.25;1531440;94;21054;-79
2022/07/24 11:22:50;;;;;;;;;;;;;;;36.25;64.89;99682.52;1547912;93;21663;-80
2022/07/24 11:25:21;;;;;;;4.17;3.70;;;;;;;36.00;63.14;99683.05;1570739;89;20107;-79
2022/07/24 11:28:00;;;;;;;6.60;3.62;;;;;;;35.68;63.78;99674.31;1653962;86;21019;-78
2022/07/24 11:30:29;;;;;;;5.03;3.45;;;;;;;35.59;70.93;99677.22;1650999;87;21076;-81
2022/07/24 11:32:59;;;;;;;3.58;3.27;;;;;;;35.57;73.30;99673.94;1654076;86;21493;-81